Airfield :
LOGIN :

Register | Disclaimer

   EN    FR    IT 

 










Legend :    VFR   Marginal VFR   IFR   Intensive IFR   Very Intensive IFR
Visi :
Ceiling :
>= 8 km
>= 3000ft
5 to 8 km
1000 to 3000 ft
1500m to 5 km
500 to 1000 ft
800 to 1500m
200 to 500 ft
< 800m
< 200 ft
Symbols :   Thunderstorms  Fog  Heavy snow  Heavy precipitations  Wind > 20 kt
SIGMETs :     Misc.  Thunderstorms  Icing  Turbulence  Mountain Waves  Volcanic Ashes






- Airport Elevation : 616 ft
- IATA code : PUF


LFBP - Pau

CURRENT METAR :
  • 270630Z AUTO 23003KT 140V260 1100 0800 R31/1200U R13/1700U BCFG VV/// 15/15 Q1027 BECMG CAVOK

EXPIRED METARs :
  • 270600Z AUTO 22004KT 180V250 2600 R31/1400U BR VV/// 14/14 Q1027 BECMG CAVOK
  • 270530Z AUTO VRB02KT 1700 1000 R31/1400U R13/P2000 BR VV/// 14/14 Q1027 BECMG CAVOK
  • 270500Z AUTO VRB01KT 8000 3400 BKN004 12/12 Q1027 TEMPO BKN006
  • 270430Z AUTO 13002KT 9000 3700 FEW007 12/12 Q1027 TEMPO BKN006
  • 270400Z AUTO 22002KT 9000 NSC 12/12 Q1026 TEMPO BKN006

TAF AMD TAF LFBP
Valid from the 27 at 06:00 until the 28 at 06:00 UTC


270602Z 2706/2806 VRB02KT 1500 BR OVC001
BECMG 2706/2708 CAVOK
BECMG 2710/2712 03010KT



MET'MAP, your aeronautical weather chart ! - Copyright ORBIFLY December 2007 - Disclaimer

ORBIFLY MET'MAP TEAM :

Programming & Development : Alexandra Zaïnal
Concept & original design : Baudouin d'Aumeries
Assistance for programming : Marc-Olivier Méhu
Technical & hardware support : Manuel Goepfert

Contact : metmap@orbifly.com




SOURCES & CREDITS :

   NOAA